createdAt,value
2018-05-23T00:00:57.741Z,0.00
2018-05-23T00:01:57.825Z,0.00
2018-05-23T00:02:58.247Z,0.00
2018-05-23T00:03:58.697Z,0.00
2018-05-23T00:04:58.329Z,0.00
2018-05-23T00:05:58.065Z,0.00
2018-05-23T00:06:58.235Z,0.00
2018-05-23T00:07:58.197Z,0.00
2018-05-23T00:08:58.525Z,0.00
2018-05-23T00:09:58.329Z,0.00
2018-05-23T00:10:58.393Z,0.00
2018-05-23T00:11:58.465Z,0.00
2018-05-23T00:12:58.534Z,0.00
2018-05-23T00:13:58.593Z,0.00
2018-05-23T00:14:58.657Z,0.00
2018-05-23T00:15:59.454Z,0.00
2018-05-23T00:16:58.797Z,0.00
2018-05-23T00:17:59.450Z,0.00
2018-05-23T00:18:59.351Z,0.00
2018-05-23T00:19:59.070Z,0.00
2018-05-23T00:20:59.082Z,0.00
2018-05-23T00:21:59.458Z,0.00
2018-05-23T00:22:59.187Z,0.00
2018-05-23T00:23:59.250Z,0.00
2018-05-23T00:24:59.317Z,0.00
2018-05-23T00:25:59.502Z,0.00
2018-05-23T00:26:59.450Z,0.00
2018-05-23T00:27:59.734Z,0.00
2018-05-23T00:28:59.598Z,0.00
2018-05-23T00:29:59.646Z,0.00
2018-05-23T00:30:59.710Z,0.00
2018-05-23T00:31:59.778Z,0.00
2018-05-23T00:32:59.851Z,0.00
2018-05-23T00:34:00.023Z,0.00
2018-05-23T00:35:00.035Z,0.00
2018-05-23T00:36:00.047Z,0.00
2018-05-23T00:37:00.126Z,0.00
2018-05-23T00:38:00.194Z,0.00
2018-05-23T00:39:00.271Z,0.00
2018-05-23T00:40:00.330Z,0.00
2018-05-23T00:41:00.375Z,0.00
2018-05-23T00:42:00.435Z,0.00
2018-05-23T00:43:00.588Z,0.00
2018-05-23T00:44:00.575Z,0.00
2018-05-23T00:45:00.635Z,0.00
2018-05-23T00:46:00.699Z,0.00
2018-05-23T00:47:00.780Z,0.00
2018-05-23T00:48:00.838Z,0.00
2018-05-23T00:49:01.439Z,0.00
2018-05-23T00:50:00.967Z,0.00
2018-05-23T00:51:01.712Z,0.00
2018-05-23T00:52:01.095Z,0.00
2018-05-23T00:53:01.184Z,0.00
2018-05-23T00:54:01.932Z,0.00
2018-05-23T00:55:01.296Z,0.00
2018-05-23T00:56:01.755Z,0.00
2018-05-23T00:57:01.426Z,0.00
2018-05-23T00:58:02.020Z,0.00
2018-05-23T00:59:01.561Z,0.00
2018-05-23T01:00:01.924Z,0.00
2018-05-23T01:01:01.826Z,0.00
2018-05-23T01:02:01.748Z,0.00
2018-05-23T01:03:01.832Z,0.00
2018-05-23T01:04:02.032Z,0.00
2018-05-23T01:05:02.080Z,0.00
2018-05-23T01:06:02.079Z,0.00
2018-05-23T01:07:02.104Z,0.00
2018-05-23T01:08:02.304Z,0.00
2018-05-23T01:09:02.744Z,0.00
2018-05-23T01:10:02.280Z,0.00
2018-05-23T01:11:02.345Z,0.00
2018-05-23T01:12:02.461Z,0.00
2018-05-23T01:13:02.481Z,0.00
2018-05-23T01:14:02.549Z,0.00
2018-05-23T01:15:02.645Z,0.00
2018-05-23T01:16:02.673Z,0.00
2018-05-23T01:17:02.777Z,0.00
2018-05-23T01:18:02.808Z,0.00
2018-05-23T01:19:02.920Z,0.00
2018-05-23T01:20:02.942Z,0.00
2018-05-23T01:21:03.001Z,0.00
2018-05-23T01:22:03.069Z,0.00
2018-05-23T01:23:03.148Z,0.00
2018-05-23T01:24:03.202Z,0.00
2018-05-23T01:25:03.264Z,0.00
2018-05-23T01:26:03.329Z,0.00
2018-05-23T01:27:03.393Z,0.00
2018-05-23T01:28:03.478Z,0.00
2018-05-23T01:29:03.621Z,0.00
2018-05-23T01:30:03.603Z,0.00
2018-05-23T01:31:03.657Z,0.00
2018-05-23T01:32:03.725Z,0.00
2018-05-23T01:33:03.878Z,0.00
2018-05-23T01:34:03.861Z,0.00
2018-05-23T01:35:03.925Z,0.00
2018-05-23T01:36:03.989Z,0.00
2018-05-23T01:37:04.057Z,0.00
2018-05-23T01:38:04.245Z,0.00
2018-05-23T01:39:04.198Z,0.00
2018-05-23T01:40:04.333Z,0.00
2018-05-23T01:41:04.334Z,0.00
2018-05-23T01:42:04.401Z,0.00
2018-05-23T01:43:04.453Z,0.00
2018-05-23T01:44:04.521Z,0.00
2018-05-23T01:45:04.574Z,0.00
2018-05-23T01:46:04.654Z,0.00
2018-05-23T01:47:04.706Z,0.00
2018-05-23T01:48:04.790Z,0.00
2018-05-23T01:49:04.850Z,0.00
2018-05-23T01:50:05.310Z,0.00
2018-05-23T01:51:04.970Z,0.00
2018-05-23T01:52:05.038Z,0.00
2018-05-23T01:53:05.102Z,0.00
2018-05-23T01:54:05.362Z,0.00
2018-05-23T01:55:05.602Z,0.00
2018-05-23T01:56:05.322Z,0.00
2018-05-23T01:57:05.366Z,0.00
2018-05-23T01:58:05.438Z,0.00
2018-05-23T01:59:05.510Z,0.00
2018-05-23T02:00:05.579Z,0.00
2018-05-23T02:01:05.632Z,0.00
2018-05-23T02:02:05.773Z,0.00
2018-05-23T02:03:05.831Z,0.00
2018-05-23T02:04:05.843Z,0.00
2018-05-23T02:05:05.934Z,0.00
2018-05-23T02:06:05.979Z,0.00
2018-05-23T02:07:06.059Z,0.00
2018-05-23T02:08:06.091Z,0.00
2018-05-23T02:09:06.167Z,0.00
2018-05-23T02:10:06.275Z,0.00
2018-05-23T02:11:06.284Z,0.00
2018-05-23T02:12:06.371Z,0.00
2018-05-23T02:13:06.439Z,0.00
2018-05-23T02:14:06.506Z,0.00
2018-05-23T02:15:06.559Z,0.00
2018-05-23T02:16:06.615Z,0.00
2018-05-23T02:17:06.675Z,0.00
2018-05-23T02:18:06.750Z,0.00
2018-05-23T02:19:06.960Z,0.00
2018-05-23T02:20:06.895Z,0.00
2018-05-23T02:21:06.963Z,0.00
2018-05-23T02:22:07.015Z,0.00
2018-05-23T02:23:07.075Z,0.00
2018-05-23T02:24:07.216Z,0.00
2018-05-23T02:25:07.203Z,0.00
2018-05-23T02:26:07.295Z,0.00
2018-05-23T02:27:07.351Z,0.00
2018-05-23T02:28:07.403Z,0.00
2018-05-23T02:29:07.485Z,0.00
2018-05-23T02:30:07.552Z,0.00
2018-05-23T02:31:07.600Z,0.00
2018-05-23T02:32:07.670Z,0.00
2018-05-23T02:33:07.733Z,0.00
2018-05-23T02:34:07.807Z,0.00
2018-05-23T02:35:07.886Z,0.00
2018-05-23T02:36:07.955Z,0.00
2018-05-23T02:37:07.995Z,0.00
2018-05-23T02:38:08.100Z,0.00
2018-05-23T02:39:08.208Z,0.00
2018-05-23T02:40:08.199Z,0.00
2018-05-23T02:41:16.783Z,0.00
2018-05-23T02:42:08.320Z,0.00
2018-05-23T02:43:08.476Z,0.00
2018-05-23T02:44:08.488Z,0.00
2018-05-23T02:45:08.524Z,0.00
2018-05-23T02:46:08.585Z,0.00
2018-05-23T02:47:09.368Z,0.00
2018-05-23T02:48:08.715Z,0.00
2018-05-23T02:49:08.872Z,0.00
2018-05-23T02:50:08.859Z,0.00
2018-05-23T02:51:08.911Z,0.00
2018-05-23T02:52:08.980Z,0.00
2018-05-23T02:53:09.047Z,0.00
2018-05-23T02:54:09.445Z,0.00
2018-05-23T02:55:09.176Z,0.00
2018-05-23T02:56:09.392Z,0.00
2018-05-23T02:57:09.313Z,0.00
2018-05-23T02:58:09.372Z,0.00
2018-05-23T02:59:09.441Z,0.00
2018-05-23T03:00:09.748Z,0.00
2018-05-23T03:01:09.569Z,0.00
2018-05-23T03:02:09.633Z,4.00
2018-05-23T03:03:09.701Z,4.00
2018-05-23T03:04:09.765Z,4.00
2018-05-23T03:05:10.488Z,0.00
2018-05-23T03:06:09.900Z,4.00
2018-05-23T03:07:09.968Z,4.00
2018-05-23T03:08:10.029Z,4.00
2018-05-23T03:09:18.316Z,4.00
2018-05-23T03:10:10.312Z,4.00
2018-05-23T03:11:10.225Z,8.00
2018-05-23T03:12:13.881Z,4.00
2018-05-23T03:13:11.411Z,8.00
2018-05-23T03:14:10.421Z,8.00
2018-05-23T03:15:10.649Z,8.00
2018-05-23T03:16:10.569Z,8.00
2018-05-23T03:17:10.616Z,8.00
2018-05-23T03:18:10.689Z,12.00
2018-05-23T03:19:18.285Z,12.00
2018-05-23T03:20:10.825Z,12.00
2018-05-23T03:21:10.897Z,12.00
2018-05-23T03:22:11.024Z,16.00
2018-05-23T03:23:11.014Z,16.00
2018-05-23T03:24:11.142Z,16.00
2018-05-23T03:25:11.289Z,20.00
2018-05-23T03:26:11.206Z,24.00
2018-05-23T03:27:11.277Z,24.00
2018-05-23T03:28:11.342Z,28.00
2018-05-23T03:29:12.550Z,28.00
2018-05-23T03:30:11.478Z,28.00
2018-05-23T03:31:11.890Z,32.00
2018-05-23T03:32:11.594Z,32.00
2018-05-23T03:33:11.670Z,36.00
2018-05-23T03:34:11.730Z,40.00
2018-05-23T03:35:11.814Z,40.00
2018-05-23T03:36:11.866Z,44.00
2018-05-23T03:37:11.927Z,48.00
2018-05-23T03:38:11.990Z,52.00
2018-05-23T03:39:12.728Z,56.00
2018-05-23T03:40:12.123Z,56.00
2018-05-23T03:41:12.210Z,56.00
2018-05-23T03:42:12.263Z,64.00
2018-05-23T03:43:12.842Z,64.00
2018-05-23T03:44:12.394Z,68.00
2018-05-23T03:45:12.466Z,72.00
2018-05-23T03:46:12.529Z,76.00
2018-05-23T03:47:12.591Z,80.00
2018-05-23T03:48:12.647Z,80.00
2018-05-23T03:49:14.107Z,84.00
2018-05-23T03:50:12.779Z,92.00
2018-05-23T03:51:12.854Z,96.00
2018-05-23T03:52:13.847Z,100.00
2018-05-23T03:53:12.979Z,108.00
2018-05-23T03:54:13.504Z,116.00
2018-05-23T03:55:13.266Z,120.00
2018-05-23T03:56:13.171Z,128.00
2018-05-23T03:57:13.276Z,132.00
2018-05-23T03:58:13.307Z,140.00
2018-05-23T03:59:13.367Z,148.00
2018-05-23T04:00:13.435Z,156.00
2018-05-23T04:01:13.507Z,160.00
2018-05-23T04:02:13.595Z,164.00
2018-05-23T04:03:14.400Z,168.00
2018-05-23T04:04:13.696Z,172.00
2018-05-23T04:05:13.759Z,180.00
2018-05-23T04:06:13.827Z,184.00
2018-05-23T04:07:14.348Z,188.00
2018-05-23T04:08:13.967Z,188.00
2018-05-23T04:09:14.399Z,196.00
2018-05-23T04:10:14.094Z,196.00
2018-05-23T04:11:14.240Z,200.00
2018-05-23T04:12:14.444Z,200.00
2018-05-23T04:13:14.283Z,204.00
2018-05-23T04:14:14.392Z,208.00
2018-05-23T04:15:14.518Z,212.00
2018-05-23T04:16:14.480Z,216.00
2018-05-23T04:17:14.552Z,220.00
2018-05-23T04:18:14.620Z,224.00
2018-05-23T04:19:14.675Z,232.00
2018-05-23T04:20:14.740Z,236.00
2018-05-23T04:21:15.092Z,240.00
2018-05-23T04:22:14.887Z,248.00
2018-05-23T04:23:14.952Z,252.00
2018-05-23T04:24:15.012Z,256.00
2018-05-23T04:25:15.074Z,260.00
2018-05-23T04:26:15.132Z,264.00
2018-05-23T04:27:15.228Z,268.00
2018-05-23T04:28:15.268Z,272.00
2018-05-23T04:29:15.336Z,276.00
2018-05-23T04:30:15.400Z,280.00
2018-05-23T04:31:15.469Z,284.00
2018-05-23T04:32:15.548Z,288.00
2018-05-23T04:33:15.624Z,288.00
2018-05-23T04:34:16.593Z,288.00
2018-05-23T04:35:15.728Z,292.00
2018-05-23T04:36:15.797Z,292.00
2018-05-23T04:37:15.861Z,296.00
2018-05-23T04:38:15.933Z,300.00
2018-05-23T04:39:16.555Z,304.00
2018-05-23T04:40:16.057Z,308.00
2018-05-23T04:41:16.125Z,316.00
2018-05-23T04:42:16.217Z,320.00
2018-05-23T04:43:16.258Z,328.00
2018-05-23T04:44:16.322Z,336.00
2018-05-23T04:45:16.385Z,344.00
2018-05-23T04:46:17.273Z,352.00
2018-05-23T04:47:16.529Z,356.00
2018-05-23T04:48:16.973Z,372.00
2018-05-23T04:49:16.641Z,380.00
2018-05-23T04:50:17.241Z,392.00
2018-05-23T04:51:16.782Z,404.00
2018-05-23T04:52:16.900Z,420.00
2018-05-23T04:53:16.914Z,432.00
2018-05-23T04:54:17.742Z,444.00
2018-05-23T04:55:17.048Z,456.00
2018-05-23T04:56:17.470Z,472.00
2018-05-23T04:57:17.170Z,488.00
2018-05-23T04:58:17.714Z,504.00
2018-05-23T04:59:17.306Z,516.00
2018-05-23T05:00:17.370Z,532.00
2018-05-23T05:01:17.434Z,544.00
2018-05-23T05:02:17.502Z,556.00
2018-05-23T05:03:17.587Z,564.00
2018-05-23T05:04:17.638Z,576.00
2018-05-23T05:05:17.690Z,584.00
2018-05-23T05:06:17.767Z,600.00
2018-05-23T05:07:17.829Z,608.00
2018-05-23T05:08:17.902Z,616.00
2018-05-23T05:09:17.971Z,628.00
2018-05-23T05:10:18.023Z,644.00
2018-05-23T05:11:18.091Z,656.00
2018-05-23T05:12:18.615Z,668.00
2018-05-23T05:13:18.242Z,684.00
2018-05-23T05:14:18.295Z,696.00
2018-05-23T05:15:18.355Z,712.00
2018-05-23T05:16:19.227Z,724.00
2018-05-23T05:17:18.483Z,736.00
2018-05-23T05:18:18.563Z,752.00
2018-05-23T05:19:19.375Z,764.00
2018-05-23T05:20:18.679Z,776.00
2018-05-23T05:21:18.819Z,792.00
2018-05-23T05:22:18.815Z,812.00
2018-05-23T05:23:18.927Z,824.00
2018-05-23T05:24:18.951Z,840.00
2018-05-23T05:25:19.147Z,852.00
2018-05-23T05:26:19.080Z,872.00
2018-05-23T05:27:19.147Z,884.00
2018-05-23T05:28:19.227Z,900.00
2018-05-23T05:29:19.383Z,908.00
2018-05-23T05:30:19.336Z,924.00
2018-05-23T05:31:19.415Z,932.00
2018-05-23T05:32:19.505Z,944.00
2018-05-23T05:33:19.540Z,952.00
2018-05-23T05:34:19.632Z,964.00
2018-05-23T05:35:19.676Z,968.00
2018-05-23T05:36:19.788Z,980.00
2018-05-23T05:37:19.863Z,988.00
2018-05-23T05:38:19.868Z,996.00
2018-05-23T05:39:19.944Z,1004.00
2018-05-23T05:40:20.009Z,1012.00
2018-05-23T05:41:20.066Z,1020.00
2018-05-23T05:42:20.140Z,1036.00
2018-05-23T05:43:20.264Z,1052.00
2018-05-23T05:44:20.292Z,1072.00
2018-05-23T05:45:20.329Z,1096.00
2018-05-23T05:46:20.404Z,1112.00
2018-05-23T05:47:20.464Z,1132.00
2018-05-23T05:48:20.528Z,1152.00
2018-05-23T05:49:20.600Z,1176.00
2018-05-23T05:50:20.668Z,1200.00
2018-05-23T05:51:20.760Z,1228.00
2018-05-23T05:52:20.792Z,1248.00
2018-05-23T05:53:20.856Z,1268.00
2018-05-23T05:54:20.928Z,1288.00
2018-05-23T05:55:20.997Z,1308.00
2018-05-23T05:56:21.108Z,1332.00
2018-05-23T05:57:21.124Z,1344.00
2018-05-23T05:58:21.192Z,1364.00
2018-05-23T05:59:21.364Z,1376.00
2018-05-23T06:00:21.320Z,1396.00
2018-05-23T06:01:21.384Z,1412.00
2018-05-23T06:02:21.452Z,1428.00
2018-05-23T06:03:21.633Z,1460.00
2018-05-23T06:04:21.592Z,1488.00
2018-05-23T06:05:21.657Z,1516.00
2018-05-23T06:06:21.785Z,1544.00
2018-05-23T06:07:21.784Z,1568.00
2018-05-23T06:08:21.849Z,1600.00
2018-05-23T06:09:21.928Z,1632.00
2018-05-23T06:10:22.056Z,1668.00
2018-05-23T06:11:22.160Z,1700.00
2018-05-23T06:12:22.120Z,1736.00
2018-05-23T06:13:22.180Z,1768.00
2018-05-23T06:14:22.333Z,1804.00
2018-05-23T06:15:22.313Z,1836.00
2018-05-23T06:16:22.409Z,1872.00
2018-05-23T06:17:22.446Z,1904.00
2018-05-23T06:18:22.509Z,1940.00
2018-05-23T06:19:22.585Z,1972.00
2018-05-23T06:20:22.723Z,2004.00
2018-05-23T06:21:22.745Z,2036.00
2018-05-23T06:22:22.839Z,2060.00
2018-05-23T06:23:22.848Z,2084.00
2018-05-23T06:24:22.918Z,2108.00
2018-05-23T06:25:23.046Z,2132.00
2018-05-23T06:26:23.078Z,2156.00
2018-05-23T06:27:23.112Z,2184.00
2018-05-23T06:28:23.174Z,2208.00
2018-05-23T06:29:23.353Z,2240.00
2018-05-23T06:30:23.330Z,2264.00
2018-05-23T06:31:23.374Z,2296.00
2018-05-23T06:32:23.442Z,2332.00
2018-05-23T06:33:23.506Z,2368.00
2018-05-23T06:34:23.582Z,2400.00
2018-05-23T06:35:24.358Z,2436.00
2018-05-23T06:36:23.714Z,2480.00
2018-05-23T06:37:23.774Z,2532.00
2018-05-23T06:38:23.842Z,2588.00
2018-05-23T06:39:23.918Z,2652.00
2018-05-23T06:40:23.982Z,2724.00
2018-05-23T06:41:24.038Z,2804.00
2018-05-23T06:42:24.109Z,2892.00
2018-05-23T06:43:24.833Z,2988.00
2018-05-23T06:44:24.255Z,3072.00
2018-05-23T06:45:24.551Z,3160.00
2018-05-23T06:46:24.493Z,3260.00
2018-05-23T06:47:24.443Z,3364.00
2018-05-23T06:48:24.506Z,3480.00
2018-05-23T06:49:24.586Z,3548.00
2018-05-23T06:50:24.647Z,3608.00
2018-05-23T06:51:24.714Z,3776.00
2018-05-23T06:52:25.419Z,3816.00
2018-05-23T06:53:24.875Z,3860.00
2018-05-23T06:54:24.915Z,3968.00
2018-05-23T06:55:24.983Z,4044.00
2018-05-23T06:56:25.920Z,4248.00
2018-05-23T06:57:25.731Z,4256.00
2018-05-23T06:58:25.179Z,4424.00
2018-05-23T06:59:25.351Z,4564.00
2018-05-23T07:00:25.311Z,4728.00
2018-05-23T07:01:25.379Z,4820.00
2018-05-23T07:02:25.447Z,4892.00
2018-05-23T07:03:25.512Z,5020.00
2018-05-23T07:04:25.588Z,5012.00
2018-05-23T07:05:25.655Z,5068.00
2018-05-23T07:06:26.304Z,5172.00
2018-05-23T07:07:25.783Z,5308.00
2018-05-23T07:08:25.851Z,5424.00
2018-05-23T07:09:25.923Z,5360.00
2018-05-23T07:10:25.992Z,5324.00
2018-05-23T07:11:26.052Z,5436.00
2018-05-23T07:12:26.119Z,5552.00
2018-05-23T07:13:26.187Z,5552.00
2018-05-23T07:14:27.084Z,5704.00
2018-05-23T07:15:26.488Z,5720.00
2018-05-23T07:16:26.388Z,5676.00
2018-05-23T07:17:26.455Z,5680.00
2018-05-23T07:18:26.524Z,5664.00
2018-05-23T07:19:26.595Z,5764.00
2018-05-23T07:20:26.668Z,5808.00
2018-05-23T07:21:26.732Z,5612.00
2018-05-23T07:22:27.184Z,5508.00
2018-05-23T07:23:27.352Z,5436.00
2018-05-23T07:24:26.936Z,5464.00
2018-05-23T07:25:27.004Z,5424.00
2018-05-23T07:26:27.077Z,5484.00
2018-05-23T07:27:27.136Z,5632.00
2018-05-23T07:28:27.204Z,5856.00
2018-05-23T07:29:27.268Z,6120.00
2018-05-23T07:30:27.840Z,6436.00
2018-05-23T07:31:27.737Z,6708.00
2018-05-23T07:32:27.477Z,6484.00
2018-05-23T07:33:27.541Z,6276.00
2018-05-23T07:34:27.618Z,6148.00
2018-05-23T07:35:27.680Z,6052.00
2018-05-23T07:36:28.348Z,5840.00
2018-05-23T07:37:27.824Z,6084.00
2018-05-23T07:38:27.888Z,5900.00
2018-05-23T07:39:27.952Z,5844.00
2018-05-23T07:40:28.265Z,5596.00
2018-05-23T07:41:28.123Z,5532.00
2018-05-23T07:42:28.157Z,5608.00
2018-05-23T07:43:28.230Z,5464.00
2018-05-23T07:44:28.293Z,5536.00
2018-05-23T07:45:28.361Z,5448.00
2018-05-23T07:46:28.438Z,5448.00
2018-05-23T07:47:28.505Z,5556.00
2018-05-23T07:48:28.569Z,5744.00
2018-05-23T07:49:28.637Z,6244.00
2018-05-23T07:50:28.705Z,6792.00
2018-05-23T07:51:28.784Z,7280.00
2018-05-23T07:52:29.418Z,8328.00
2018-05-23T07:53:28.909Z,9716.00
2018-05-23T07:54:28.982Z,8456.00
2018-05-23T07:55:29.237Z,10268.00
2018-05-23T07:56:29.486Z,9652.00
2018-05-23T07:57:29.186Z,10088.00
2018-05-23T07:58:29.253Z,9836.00
2018-05-23T07:59:29.326Z,12204.00
2018-05-23T08:00:29.841Z,12472.00
2018-05-23T08:01:29.725Z,13224.00
2018-05-23T08:02:29.538Z,13708.00
2018-05-23T08:03:29.602Z,14912.00
2018-05-23T08:04:29.918Z,16928.00
2018-05-23T08:05:29.850Z,17632.00
2018-05-23T08:06:29.818Z,20544.00
2018-05-23T08:07:29.890Z,19456.00
2018-05-23T08:08:29.952Z,20896.00
2018-05-23T08:09:30.022Z,19424.00
2018-05-23T08:10:30.534Z,18464.00
2018-05-23T08:11:30.483Z,20960.00
2018-05-23T08:12:30.344Z,21760.00
2018-05-23T08:13:30.679Z,21728.00
2018-05-23T08:14:30.383Z,25312.00
2018-05-23T08:15:30.450Z,25824.00
2018-05-23T08:16:30.522Z,25984.00
2018-05-23T08:17:30.599Z,24864.00
2018-05-23T08:18:30.670Z,21856.00
2018-05-23T08:19:30.738Z,24032.00
2018-05-23T08:20:30.810Z,23776.00
2018-05-23T08:21:31.206Z,24224.00
2018-05-23T08:22:30.966Z,23072.00
2018-05-23T08:23:31.039Z,22912.00
2018-05-23T08:24:31.427Z,23488.00
2018-05-23T08:25:31.178Z,22528.00
2018-05-23T08:26:31.378Z,20352.00
2018-05-23T08:27:31.465Z,20672.00
2018-05-23T08:28:31.471Z,26080.00
2018-05-23T08:29:31.479Z,31968.00
2018-05-23T08:30:31.550Z,33184.00
2018-05-23T08:31:31.627Z,30528.00
2018-05-23T08:32:32.067Z,27584.00
2018-05-23T08:33:31.782Z,24928.00
2018-05-23T08:34:31.855Z,23680.00
2018-05-23T08:35:31.931Z,21408.00
2018-05-23T08:36:32.191Z,20480.00
2018-05-23T08:37:32.523Z,19328.00
2018-05-23T08:38:32.159Z,18048.00
2018-05-23T08:39:32.235Z,16864.00
2018-05-23T08:40:32.779Z,15968.00
2018-05-23T08:41:32.783Z,15136.00
2018-05-23T08:42:33.287Z,13680.00
2018-05-23T08:43:32.543Z,13844.00
2018-05-23T08:44:32.624Z,14752.00
2018-05-23T08:45:32.695Z,16416.00
2018-05-23T08:46:32.772Z,14816.00
2018-05-23T08:47:32.859Z,12908.00
2018-05-23T08:48:32.931Z,11712.00
2018-05-23T08:49:33.532Z,10856.00
2018-05-23T08:50:33.076Z,11208.00
2018-05-23T08:51:33.151Z,11460.00
2018-05-23T08:52:33.228Z,11704.00
2018-05-23T08:53:33.327Z,12452.00
2018-05-23T08:54:33.624Z,11864.00
2018-05-23T08:55:33.466Z,12976.00
2018-05-23T08:56:33.532Z,10624.00
2018-05-23T08:57:33.614Z,9288.00
2018-05-23T08:58:34.268Z,9268.00
2018-05-23T08:59:33.767Z,9620.00
2018-05-23T09:00:33.836Z,10012.00
2018-05-23T09:01:34.416Z,10540.00
2018-05-23T09:02:34.308Z,10456.00
2018-05-23T09:03:34.072Z,13688.00
2018-05-23T09:04:34.140Z,15104.00
2018-05-23T09:05:34.208Z,16160.00
2018-05-23T09:06:34.364Z,14528.00
2018-05-23T09:07:34.673Z,15744.00
2018-05-23T09:08:34.440Z,16256.00
2018-05-23T09:09:34.717Z,15712.00
2018-05-23T09:10:34.796Z,15488.00
2018-05-23T09:11:34.660Z,15168.00
2018-05-23T09:12:34.846Z,14432.00
2018-05-23T09:13:34.820Z,13336.00
2018-05-23T09:14:34.896Z,12128.00
2018-05-23T09:15:35.268Z,15136.00
2018-05-23T09:16:35.048Z,15072.00
2018-05-23T09:17:35.118Z,14944.00
2018-05-23T09:18:35.354Z,14944.00
2018-05-23T09:19:35.484Z,14560.00
2018-05-23T09:20:35.344Z,14688.00
2018-05-23T09:21:35.420Z,14024.00
2018-05-23T09:22:35.497Z,13888.00
2018-05-23T09:23:35.581Z,13664.00
2018-05-23T09:24:35.661Z,13532.00
2018-05-23T09:25:35.993Z,13144.00
2018-05-23T09:26:35.801Z,10300.00
2018-05-23T09:27:35.876Z,12972.00
2018-05-23T09:28:35.961Z,12780.00
2018-05-23T09:29:36.038Z,11312.00
2018-05-23T09:30:36.240Z,10856.00
2018-05-23T09:31:36.181Z,9704.00
2018-05-23T09:32:36.257Z,9288.00
2018-05-23T09:33:36.365Z,8820.00
2018-05-23T09:34:36.409Z,9544.00
2018-05-23T09:35:36.485Z,9876.00
2018-05-23T09:36:36.561Z,10264.00
2018-05-23T09:37:36.637Z,10084.00
2018-05-23T09:38:36.717Z,10252.00
2018-05-23T09:39:36.817Z,10460.00
2018-05-23T09:40:36.861Z,10636.00
2018-05-23T09:41:36.937Z,10204.00
2018-05-23T09:42:37.257Z,9568.00
2018-05-23T09:43:37.425Z,9192.00
2018-05-23T09:44:37.166Z,8932.00
2018-05-23T09:45:37.237Z,8892.00
2018-05-23T09:46:37.313Z,8428.00
2018-05-23T09:47:37.506Z,8372.00
2018-05-23T09:48:37.470Z,8396.00
2018-05-23T09:49:37.770Z,8280.00
2018-05-23T09:50:37.610Z,8308.00
2018-05-23T09:51:37.685Z,8608.00
2018-05-23T09:52:37.762Z,9408.00
2018-05-23T09:53:37.842Z,9796.00
2018-05-23T09:54:37.914Z,9824.00
2018-05-23T09:55:37.982Z,9548.00
2018-05-23T09:56:38.145Z,9368.00
2018-05-23T09:57:38.130Z,10332.00
2018-05-23T09:58:38.371Z,9660.00
2018-05-23T09:59:38.278Z,10404.00
2018-05-23T10:00:38.354Z,11544.00
2018-05-23T10:01:38.915Z,12184.00
2018-05-23T10:02:38.501Z,11648.00
2018-05-23T10:03:38.582Z,11480.00
2018-05-23T10:04:38.654Z,11432.00
2018-05-23T10:05:38.722Z,11696.00
2018-05-23T10:06:38.797Z,11612.00
2018-05-23T10:07:38.870Z,11244.00
2018-05-23T10:08:38.986Z,10972.00
2018-05-23T10:09:39.026Z,10856.00
2018-05-23T10:10:39.094Z,10688.00
2018-05-23T10:11:39.374Z,11648.00
2018-05-23T10:12:39.243Z,11848.00
2018-05-23T10:13:39.499Z,11692.00
2018-05-23T10:14:39.639Z,11656.00
2018-05-23T10:15:39.471Z,11544.00
2018-05-23T10:16:39.544Z,11220.00
2018-05-23T10:17:39.615Z,10864.00
2018-05-23T10:18:39.695Z,10444.00
2018-05-23T10:19:39.771Z,9944.00
2018-05-23T10:20:39.839Z,10648.00
2018-05-23T10:21:39.951Z,10464.00
2018-05-23T10:22:40.435Z,9596.00
2018-05-23T10:23:40.067Z,10060.00
2018-05-23T10:24:40.503Z,10216.00
2018-05-23T10:25:40.268Z,9876.00
2018-05-23T10:26:40.288Z,9912.00
2018-05-23T10:27:40.632Z,9560.00
2018-05-23T10:28:40.439Z,9688.00
2018-05-23T10:29:40.511Z,9784.00
2018-05-23T10:30:40.580Z,9428.00
2018-05-23T10:31:42.481Z,8192.00
2018-05-23T10:32:40.732Z,8180.00
2018-05-23T10:33:42.496Z,7416.00
2018-05-23T10:34:40.911Z,6416.00
2018-05-23T10:35:40.960Z,6088.00
2018-05-23T10:36:41.024Z,6148.00
2018-05-23T10:37:41.100Z,6048.00
2018-05-23T10:38:41.191Z,5352.00
2018-05-23T10:39:41.560Z,4964.00
2018-05-23T10:40:41.326Z,4780.00
2018-05-23T10:41:41.392Z,4360.00
2018-05-23T10:42:41.548Z,4136.00
2018-05-23T10:43:41.549Z,3964.00
2018-05-23T10:44:42.022Z,3844.00
2018-05-23T10:45:41.684Z,3792.00
2018-05-23T10:46:41.757Z,3756.00
2018-05-23T10:47:41.828Z,3740.00
2018-05-23T10:48:41.908Z,3740.00
2018-05-23T10:49:41.989Z,3716.00
2018-05-23T10:50:42.045Z,3684.00
2018-05-23T10:51:42.524Z,3668.00
2018-05-23T10:52:42.345Z,3660.00
2018-05-23T10:53:42.261Z,3628.00
2018-05-23T10:54:42.681Z,3628.00
2018-05-23T10:55:42.550Z,3664.00
2018-05-23T10:56:42.473Z,3732.00
2018-05-23T10:57:42.558Z,3824.00
2018-05-23T10:58:42.761Z,3936.00
2018-05-23T10:59:42.897Z,4052.00
2018-05-23T11:00:42.885Z,4136.00
2018-05-23T11:01:42.829Z,4184.00
2018-05-23T11:02:42.905Z,4200.00
2018-05-23T11:03:42.973Z,4180.00
2018-05-23T11:04:43.053Z,4116.00
2018-05-23T11:05:43.141Z,4008.00
2018-05-23T11:06:43.210Z,3868.00
2018-05-23T11:07:43.254Z,3672.00
2018-05-23T11:08:43.326Z,3424.00
2018-05-23T11:09:43.403Z,3144.00
2018-05-23T11:10:43.466Z,2884.00
2018-05-23T11:11:43.710Z,2632.00
2018-05-23T11:12:43.609Z,2412.00
2018-05-23T11:13:44.074Z,2228.00
2018-05-23T11:14:44.102Z,2092.00
2018-05-23T11:15:43.846Z,1992.00
2018-05-23T11:16:43.894Z,1916.00
2018-05-23T11:17:43.950Z,1888.00
2018-05-23T11:18:44.538Z,1888.00
2018-05-23T11:19:44.369Z,1924.00
2018-05-23T11:20:44.174Z,1988.00
2018-05-23T11:21:44.230Z,2080.00
2018-05-23T11:22:44.310Z,2196.00
2018-05-23T11:23:44.898Z,2320.00
2018-05-23T11:24:44.447Z,2452.00
2018-05-23T11:25:44.530Z,2600.00
2018-05-23T11:26:44.587Z,2768.00
2018-05-23T11:27:44.656Z,2948.00
2018-05-23T11:28:44.718Z,3124.00
2018-05-23T11:29:44.878Z,3324.00
2018-05-23T11:30:44.878Z,3524.00
2018-05-23T11:31:45.666Z,3736.00
2018-05-23T11:32:44.999Z,3952.00
2018-05-23T11:33:45.069Z,4176.00
2018-05-23T11:34:45.142Z,4412.00
2018-05-23T11:35:45.975Z,4656.00
2018-05-23T11:36:45.270Z,4980.00
2018-05-23T11:37:45.347Z,5168.00
2018-05-23T11:38:45.407Z,5328.00
2018-05-23T11:39:45.483Z,5504.00
2018-05-23T11:40:45.558Z,5532.00
2018-05-23T11:41:46.283Z,5548.00
2018-05-23T11:42:45.699Z,5540.00
2018-05-23T11:43:45.762Z,5520.00
2018-05-23T11:44:45.831Z,5500.00
2018-05-23T11:45:45.907Z,5476.00
2018-05-23T11:46:45.975Z,5440.00
2018-05-23T11:47:46.039Z,5360.00
2018-05-23T11:48:46.668Z,5312.00
2018-05-23T11:49:46.179Z,5280.00
2018-05-23T11:50:46.359Z,5240.00
2018-05-23T11:51:46.323Z,5188.00
2018-05-23T11:52:46.792Z,5184.00
2018-05-23T11:53:46.783Z,5196.00
2018-05-23T11:54:46.959Z,5212.00
2018-05-23T11:55:46.608Z,5228.00
2018-05-23T11:56:46.671Z,5240.00
2018-05-23T11:57:46.735Z,5256.00
2018-05-23T11:58:46.814Z,5248.00
2018-05-23T11:59:46.875Z,5232.00
2018-05-23T12:00:46.952Z,5200.00
2018-05-23T12:01:47.102Z,5140.00
2018-05-23T12:02:47.087Z,5052.00
2018-05-23T12:03:47.155Z,4940.00
2018-05-23T12:04:47.219Z,4812.00
2018-05-23T12:05:47.479Z,4660.00
2018-05-23T12:06:47.392Z,4504.00
2018-05-23T12:07:47.440Z,4376.00
2018-05-23T12:08:47.508Z,4264.00
2018-05-23T12:09:48.136Z,4168.00
2018-05-23T12:10:47.643Z,4080.00
2018-05-23T12:11:47.887Z,4000.00
2018-05-23T12:12:47.792Z,3944.00
2018-05-23T12:13:47.852Z,3896.00
2018-05-23T12:14:47.929Z,3868.00
2018-05-23T12:15:47.991Z,3844.00
2018-05-23T12:16:48.556Z,3812.00
2018-05-23T12:17:48.496Z,3812.00
2018-05-23T12:18:48.608Z,3812.00
2018-05-23T12:19:48.276Z,3820.00
2018-05-23T12:20:48.348Z,3832.00
2018-05-23T12:21:48.816Z,3860.00
2018-05-23T12:22:49.164Z,3880.00
2018-05-23T12:23:48.553Z,3896.00
2018-05-23T12:24:48.620Z,3912.00
2018-05-23T12:25:49.468Z,3936.00
2018-05-23T12:26:48.777Z,3956.00